createdAt,value
2023-05-17T00:00:59.397Z,69.70
2023-05-17T00:02:01.674Z,69.69
2023-05-17T00:03:03.631Z,69.74
2023-05-17T00:04:05.752Z,69.66
2023-05-17T00:05:09.022Z,69.60
2023-05-17T00:06:11.495Z,69.54
2023-05-17T00:07:13.996Z,69.61
2023-05-17T00:08:16.048Z,69.61
2023-05-17T00:09:18.259Z,69.59
2023-05-17T00:10:20.796Z,69.40
2023-05-17T00:11:22.751Z,69.37
2023-05-17T00:12:24.780Z,69.45
2023-05-17T00:13:26.696Z,69.45
2023-05-17T00:14:28.685Z,69.40
2023-05-17T00:15:31.055Z,69.22
2023-05-17T00:16:33.307Z,69.24
2023-05-17T00:17:35.326Z,69.09
2023-05-17T00:18:38.485Z,69.06
2023-05-17T00:19:40.733Z,69.12
2023-05-17T00:20:42.869Z,69.18
2023-05-17T00:21:45.425Z,69.10
2023-05-17T00:22:47.357Z,69.09
2023-05-17T00:23:49.348Z,69.09
2023-05-17T00:24:51.278Z,69.00
2023-05-17T00:25:53.273Z,68.85
2023-05-17T00:26:55.361Z,68.70
2023-05-17T00:27:57.250Z,68.88
2023-05-17T00:28:59.122Z,68.86
2023-05-17T00:30:01.045Z,68.67
2023-05-17T00:31:03.040Z,68.78
2023-05-17T00:32:05.979Z,68.68
2023-05-17T00:33:08.266Z,68.54
2023-05-17T00:34:10.299Z,68.41
2023-05-17T00:35:12.207Z,68.50
2023-05-17T00:36:14.651Z,68.38
2023-05-17T00:37:16.626Z,68.50
2023-05-17T00:38:18.526Z,68.34
2023-05-17T00:39:20.433Z,68.19
2023-05-17T00:40:22.555Z,68.13
2023-05-17T00:41:24.445Z,68.13
2023-05-17T00:42:26.350Z,68.20
2023-05-17T00:43:28.232Z,68.23
2023-05-17T00:44:30.260Z,68.33
2023-05-17T00:45:32.139Z,68.36
2023-05-17T00:46:34.138Z,68.38
2023-05-17T00:47:36.187Z,68.53
2023-05-17T00:48:39.240Z,68.44
2023-05-17T00:49:41.514Z,68.38
2023-05-17T00:50:43.937Z,68.17
2023-05-17T00:51:49.820Z,68.15
2023-05-17T00:52:52.435Z,68.00
2023-05-17T00:53:54.655Z,68.09
2023-05-17T00:54:56.877Z,68.07
2023-05-17T00:56:00.059Z,68.06
2023-05-17T00:57:03.798Z,68.00
2023-05-17T00:58:05.826Z,67.98
2023-05-17T00:59:08.535Z,67.86
2023-05-17T01:00:12.613Z,67.75
2023-05-17T01:01:15.049Z,67.74
2023-05-17T01:02:16.964Z,67.71
2023-05-17T01:03:19.145Z,67.93
2023-05-17T01:04:21.632Z,67.77
2023-05-17T01:05:23.840Z,67.80
2023-05-17T01:06:26.077Z,67.95
2023-05-17T01:07:28.075Z,68.06
2023-05-17T01:08:30.719Z,68.10
2023-05-17T01:09:33.012Z,68.28
2023-05-17T01:11:09.163Z,68.28
2023-05-17T01:12:27.256Z,68.40
2023-05-17T01:13:41.974Z,68.37
2023-05-17T01:14:59.822Z,68.39
2023-05-17T01:16:11.908Z,68.80
2023-05-17T01:17:26.829Z,69.24
2023-05-17T01:18:36.140Z,69.97
2023-05-17T01:20:03.155Z,69.77
2023-05-17T01:21:09.042Z,69.05
2023-05-17T01:22:37.877Z,68.58
2023-05-17T01:23:43.662Z,68.33
2023-05-17T01:25:17.193Z,68.34
2023-05-17T01:26:35.277Z,68.60
2023-05-17T01:27:40.393Z,69.10
2023-05-17T01:28:46.091Z,69.23
2023-05-17T01:29:50.215Z,69.63
2023-05-17T01:30:53.509Z,69.15
2023-05-17T01:31:57.022Z,68.89
2023-05-17T01:33:01.826Z,68.66
2023-05-17T01:34:08.451Z,68.57
2023-05-17T01:35:11.340Z,68.65
2023-05-17T01:36:13.646Z,68.74
2023-05-17T01:37:16.759Z,68.64
2023-05-17T01:38:20.051Z,68.64
2023-05-17T01:39:22.371Z,68.74
2023-05-17T01:40:24.945Z,69.30
2023-05-17T01:41:30.615Z,69.84
2023-05-17T01:42:33.474Z,70.64
2023-05-17T01:43:39.140Z,70.82
2023-05-17T01:44:53.429Z,71.07
2023-05-17T01:46:18.757Z,70.42
2023-05-17T01:48:44.675Z,69.36
2023-05-17T01:49:50.177Z,69.12
2023-05-17T01:50:55.833Z,68.80
2023-05-17T01:52:04.549Z,68.65
2023-05-17T01:54:30.236Z,68.75
2023-05-17T01:55:45.078Z,68.70
2023-05-17T01:56:50.426Z,68.61
2023-05-17T01:57:55.419Z,68.61
2023-05-17T01:58:59.277Z,68.74
2023-05-17T02:00:04.585Z,68.64
2023-05-17T02:01:09.358Z,68.66
2023-05-17T02:02:11.805Z,68.69
2023-05-17T02:03:18.340Z,68.64
2023-05-17T02:04:20.744Z,68.80
2023-05-17T02:05:23.261Z,68.91
2023-05-17T02:06:25.472Z,68.75
2023-05-17T02:07:27.365Z,68.75
2023-05-17T02:08:29.529Z,69.08
2023-05-17T02:09:31.499Z,69.00
2023-05-17T02:10:33.596Z,69.02
2023-05-17T02:11:35.992Z,69.25
2023-05-17T02:12:38.007Z,69.24
2023-05-17T02:13:40.292Z,69.08
2023-05-17T02:14:42.528Z,69.11
2023-05-17T02:15:44.463Z,69.19
2023-05-17T02:16:46.528Z,69.30
2023-05-17T02:17:49.329Z,69.42
2023-05-17T02:18:51.610Z,69.57
2023-05-17T02:19:53.782Z,69.58
2023-05-17T02:20:55.924Z,69.41
2023-05-17T02:21:57.800Z,69.67
2023-05-17T02:22:59.752Z,69.57
2023-05-17T02:24:01.840Z,69.51
2023-05-17T02:25:04.885Z,69.47
2023-05-17T02:26:07.109Z,69.58
2023-05-17T02:27:09.095Z,69.51
2023-05-17T02:28:10.989Z,69.43
2023-05-17T02:29:14.091Z,69.49
2023-05-17T02:30:18.119Z,69.52
2023-05-17T02:31:20.384Z,69.37
2023-05-17T02:32:22.615Z,69.60
2023-05-17T02:33:24.797Z,69.58
2023-05-17T02:34:26.934Z,69.47
2023-05-17T02:35:29.123Z,69.53
2023-05-17T02:36:31.612Z,69.38
2023-05-17T02:37:33.576Z,69.35
2023-05-17T02:38:35.498Z,69.43
2023-05-17T02:39:37.398Z,69.51
2023-05-17T02:40:41.486Z,69.55
2023-05-17T02:41:43.857Z,69.53
2023-05-17T02:42:45.757Z,69.53
2023-05-17T02:43:47.767Z,69.54
2023-05-17T02:44:49.683Z,69.64
2023-05-17T02:45:51.663Z,69.71
2023-05-17T02:46:53.698Z,69.82
2023-05-17T02:47:55.716Z,70.09
2023-05-17T02:48:57.850Z,70.09
2023-05-17T02:49:59.813Z,69.93
2023-05-17T02:51:01.807Z,70.06
2023-05-17T02:52:04.538Z,70.07
2023-05-17T02:53:06.432Z,70.07
2023-05-17T02:54:08.491Z,69.96
2023-05-17T02:55:10.422Z,70.03
2023-05-17T02:56:12.622Z,70.00
2023-05-17T02:57:14.653Z,69.90
2023-05-17T02:58:16.565Z,69.80
2023-05-17T02:59:18.470Z,69.87
2023-05-17T03:00:20.844Z,69.90
2023-05-17T03:01:23.359Z,70.04
2023-05-17T03:02:25.514Z,69.87
2023-05-17T03:03:27.891Z,69.96
2023-05-17T03:04:32.309Z,69.81
2023-05-17T03:05:34.478Z,69.85
2023-05-17T03:06:37.810Z,69.74
2023-05-17T03:07:39.726Z,69.66
2023-05-17T03:08:42.005Z,69.59
2023-05-17T03:09:43.952Z,69.47
2023-05-17T03:10:46.948Z,69.57
2023-05-17T03:11:49.457Z,69.66
2023-05-17T03:12:51.467Z,69.82
2023-05-17T03:13:53.504Z,69.90
2023-05-17T03:14:55.523Z,70.03
2023-05-17T03:15:57.426Z,70.24
2023-05-17T03:16:59.646Z,70.30
2023-05-17T03:18:01.751Z,69.94
2023-05-17T03:19:04.038Z,69.91
2023-05-17T03:20:07.980Z,69.82
2023-05-17T03:21:11.369Z,69.73
2023-05-17T03:22:13.536Z,69.69
2023-05-17T03:23:15.536Z,69.81
2023-05-17T03:24:17.498Z,69.82
2023-05-17T03:25:19.429Z,69.61
2023-05-17T03:26:21.454Z,69.62
2023-05-17T03:27:23.937Z,69.79
2023-05-17T03:28:26.130Z,70.14
2023-05-17T03:29:28.032Z,70.03
2023-05-17T03:30:30.121Z,70.14
2023-05-17T03:31:34.250Z,70.45
2023-05-17T03:32:41.457Z,70.21
2023-05-17T03:33:44.404Z,70.39
2023-05-17T03:34:46.433Z,70.21
2023-05-17T03:35:48.620Z,69.99
2023-05-17T03:36:50.973Z,69.69
2023-05-17T03:37:53.921Z,69.68
2023-05-17T03:38:59.501Z,69.47
2023-05-17T03:40:01.658Z,69.43
2023-05-17T03:41:03.888Z,69.20
2023-05-17T03:42:06.073Z,69.01
2023-05-17T03:43:08.173Z,69.02
2023-05-17T03:44:10.233Z,69.24
2023-05-17T03:45:12.313Z,69.11
2023-05-17T03:46:14.577Z,69.19
2023-05-17T03:47:16.669Z,69.46
2023-05-17T03:48:18.611Z,69.82
2023-05-17T03:49:22.483Z,69.93
2023-05-17T03:50:27.613Z,69.86
2023-05-17T03:51:29.757Z,69.78
2023-05-17T03:52:31.716Z,69.85
2023-05-17T03:53:33.659Z,69.75
2023-05-17T03:54:35.698Z,69.84
2023-05-17T03:55:37.691Z,70.00
2023-05-17T03:56:40.016Z,70.08
2023-05-17T03:57:43.858Z,69.92
2023-05-17T03:58:45.948Z,69.87
2023-05-17T03:59:47.830Z,69.81
2023-05-17T04:00:49.877Z,69.48
2023-05-17T04:01:51.839Z,69.43
2023-05-17T04:02:54.543Z,69.38
2023-05-17T04:03:56.706Z,69.46
2023-05-17T04:04:58.671Z,69.43
2023-05-17T04:06:04.789Z,69.70
2023-05-17T04:07:06.710Z,69.48
2023-05-17T04:08:08.809Z,69.54
2023-05-17T04:09:10.865Z,69.28
2023-05-17T04:10:13.342Z,69.12
2023-05-17T04:11:15.217Z,68.86
2023-05-17T04:12:17.979Z,68.76
2023-05-17T04:13:19.858Z,68.39
2023-05-17T04:14:21.748Z,68.71
2023-05-17T04:15:24.676Z,68.53
2023-05-17T04:16:26.904Z,68.23
2023-05-17T04:17:28.959Z,67.76
2023-05-17T04:18:36.799Z,67.89
2023-05-17T04:19:39.014Z,67.66
2023-05-17T04:20:42.207Z,67.39
2023-05-17T04:21:44.565Z,67.60
2023-05-17T04:22:46.433Z,67.46
2023-05-17T04:23:48.422Z,67.18
2023-05-17T04:24:50.418Z,67.21
2023-05-17T04:25:52.317Z,67.26
2023-05-17T04:26:54.470Z,66.98
2023-05-17T04:27:56.416Z,66.85
2023-05-17T04:28:58.302Z,66.72
2023-05-17T04:30:00.303Z,66.54
2023-05-17T04:31:05.161Z,66.45
2023-05-17T04:32:08.131Z,66.64
2023-05-17T04:33:11.457Z,66.65
2023-05-17T04:34:15.794Z,66.13
2023-05-17T04:35:18.000Z,66.02
2023-05-17T04:36:19.989Z,65.90
2023-05-17T04:37:22.331Z,65.49
2023-05-17T04:38:24.344Z,65.59
2023-05-17T04:39:26.409Z,65.52
2023-05-17T04:40:29.050Z,65.53
2023-05-17T04:41:31.093Z,65.10
2023-05-17T04:42:32.986Z,65.14
2023-05-17T04:43:34.960Z,65.48
2023-05-17T04:44:36.842Z,65.73
2023-05-17T04:45:38.730Z,65.59
2023-05-17T04:46:40.729Z,65.40
2023-05-17T04:47:42.662Z,64.94
2023-05-17T04:48:45.653Z,65.02
2023-05-17T04:49:47.851Z,64.91
2023-05-17T04:50:49.824Z,65.01
2023-05-17T04:51:52.041Z,65.37
2023-05-17T04:52:53.950Z,65.45
2023-05-17T04:53:56.180Z,64.93
2023-05-17T04:54:58.258Z,65.16
2023-05-17T04:56:00.349Z,65.14
2023-05-17T04:57:02.391Z,65.07
2023-05-17T04:58:04.275Z,65.33
2023-05-17T04:59:06.158Z,65.04
2023-05-17T05:00:09.250Z,65.41
2023-05-17T05:01:11.279Z,65.32
2023-05-17T05:02:13.168Z,64.78
2023-05-17T05:03:15.662Z,64.61
2023-05-17T05:04:17.986Z,64.50
2023-05-17T05:05:20.076Z,64.30
2023-05-17T05:06:22.079Z,64.41
2023-05-17T05:07:24.173Z,64.67
2023-05-17T05:08:26.062Z,64.80
2023-05-17T05:09:27.963Z,64.89
2023-05-17T05:10:30.140Z,64.85
2023-05-17T05:11:32.096Z,64.79
2023-05-17T05:12:33.975Z,64.80
2023-05-17T05:13:35.880Z,64.82
2023-05-17T05:14:37.781Z,64.24
2023-05-17T05:15:39.804Z,63.70
2023-05-17T05:16:41.953Z,63.58
2023-05-17T05:17:44.050Z,63.74
2023-05-17T05:18:46.189Z,63.55
2023-05-17T05:19:48.393Z,63.62
2023-05-17T05:20:50.813Z,63.49
2023-05-17T05:21:52.951Z,63.32
2023-05-17T05:22:54.871Z,63.11
2023-05-17T05:23:56.789Z,62.95
2023-05-17T05:24:58.917Z,62.87
2023-05-17T05:26:00.977Z,63.14
2023-05-17T05:27:05.534Z,63.22
2023-05-17T05:28:07.055Z,63.21
2023-05-17T05:29:08.955Z,63.51
2023-05-17T05:30:12.827Z,63.39
2023-05-17T05:31:14.749Z,63.03
2023-05-17T05:32:16.645Z,62.93
2023-05-17T05:33:19.496Z,63.05
2023-05-17T05:34:21.597Z,62.97
2023-05-17T05:35:24.066Z,62.74
2023-05-17T05:36:26.075Z,62.60
2023-05-17T05:37:28.073Z,62.38
2023-05-17T05:38:30.063Z,62.47
2023-05-17T05:39:32.054Z,62.38
2023-05-17T05:40:34.048Z,62.33
2023-05-17T05:41:36.200Z,61.69
2023-05-17T05:42:38.160Z,61.66
2023-05-17T05:43:40.112Z,61.41
2023-05-17T05:44:42.258Z,61.45
2023-05-17T05:45:44.670Z,60.94
2023-05-17T05:46:46.799Z,60.72
2023-05-17T05:47:49.547Z,60.85
2023-05-17T05:48:51.841Z,61.03
2023-05-17T05:49:54.011Z,60.95
2023-05-17T05:50:57.930Z,60.64
2023-05-17T05:51:59.928Z,60.59
2023-05-17T05:53:14.378Z,60.75
2023-05-17T05:54:05.965Z,60.28
2023-05-17T05:55:08.682Z,60.15
2023-05-17T05:56:10.956Z,59.42
2023-05-17T05:57:13.037Z,59.42
2023-05-17T05:58:15.429Z,59.34
2023-05-17T05:59:17.353Z,59.10
2023-05-17T06:00:19.901Z,59.05
2023-05-17T06:01:22.109Z,59.08
2023-05-17T06:02:24.038Z,58.60
2023-05-17T06:03:26.231Z,58.61
2023-05-17T06:04:36.693Z,58.20
2023-05-17T06:05:32.313Z,57.73
2023-05-17T06:06:35.398Z,57.70
2023-05-17T06:07:37.725Z,57.49
2023-05-17T06:08:40.782Z,57.21
2023-05-17T06:09:43.234Z,57.19
2023-05-17T06:10:45.661Z,57.37
2023-05-17T06:11:47.589Z,57.54
2023-05-17T06:12:49.712Z,57.59
2023-05-17T06:13:51.617Z,57.36
2023-05-17T06:14:53.516Z,57.29
2023-05-17T06:15:55.560Z,56.94
2023-05-17T06:16:57.974Z,56.65
2023-05-17T06:18:00.228Z,56.21
2023-05-17T06:19:03.214Z,56.13
2023-05-17T06:20:06.618Z,56.15
2023-05-17T06:21:08.670Z,55.52
2023-05-17T06:22:14.518Z,55.20
2023-05-17T06:23:16.464Z,55.54
2023-05-17T06:24:18.354Z,55.97
2023-05-17T06:25:20.465Z,55.90
2023-05-17T06:26:22.467Z,55.69
2023-05-17T06:27:24.519Z,55.53
2023-05-17T06:28:26.431Z,55.59
2023-05-17T06:29:28.401Z,54.90
2023-05-17T06:30:31.048Z,54.69
2023-05-17T06:31:33.457Z,54.31
2023-05-17T06:32:35.761Z,54.33
2023-05-17T06:33:37.903Z,54.23
2023-05-17T06:34:39.859Z,54.18
2023-05-17T06:35:55.715Z,54.52
2023-05-17T06:36:46.812Z,54.45
2023-05-17T06:37:50.592Z,53.68
2023-05-17T06:38:52.742Z,53.24
2023-05-17T06:40:10.164Z,53.29
2023-05-17T06:41:07.786Z,52.14
2023-05-17T06:42:09.675Z,51.72
2023-05-17T06:43:11.733Z,51.30
2023-05-17T06:44:13.777Z,51.24
2023-05-17T06:45:15.762Z,51.54
2023-05-17T06:46:17.995Z,51.20
2023-05-17T06:47:20.049Z,50.99
2023-05-17T06:48:22.591Z,51.05
2023-05-17T06:49:24.895Z,50.88
2023-05-17T06:50:27.493Z,51.03
2023-05-17T06:51:29.796Z,50.64
2023-05-17T06:52:31.911Z,50.43
2023-05-17T06:53:33.787Z,50.00
2023-05-17T06:54:35.690Z,50.29
2023-05-17T06:55:37.659Z,49.44
2023-05-17T06:56:41.076Z,48.62
2023-05-17T06:57:43.017Z,47.66
2023-05-17T06:58:45.162Z,47.34
2023-05-17T06:59:47.171Z,47.43
2023-05-17T07:00:49.262Z,46.93
2023-05-17T07:01:51.289Z,46.56
2023-05-17T07:02:53.283Z,46.07
2023-05-17T07:03:55.441Z,46.37
2023-05-17T07:04:57.625Z,45.22
2023-05-17T07:05:59.573Z,45.07
2023-05-17T07:07:02.472Z,44.86
2023-05-17T07:08:04.572Z,45.36
2023-05-17T07:09:06.673Z,44.87
2023-05-17T07:10:09.351Z,44.64
2023-05-17T07:11:12.947Z,44.93
2023-05-17T07:12:14.850Z,44.60
2023-05-17T07:13:16.779Z,43.47
2023-05-17T07:14:18.765Z,42.89
2023-05-17T07:15:20.888Z,43.81
2023-05-17T07:16:23.010Z,43.17
2023-05-17T07:17:24.905Z,43.01
2023-05-17T07:18:27.366Z,43.34
2023-05-17T07:19:29.558Z,42.99
2023-05-17T07:20:33.188Z,42.80
2023-05-17T07:21:35.209Z,42.20
2023-05-17T07:22:37.268Z,42.35
2023-05-17T07:23:39.151Z,41.93
2023-05-17T07:24:41.057Z,41.92
2023-05-17T07:25:42.946Z,41.96
2023-05-17T07:26:46.508Z,43.28
2023-05-17T07:27:48.528Z,43.05
2023-05-17T07:28:50.852Z,42.50
2023-05-17T07:29:52.905Z,42.90
2023-05-17T07:30:54.987Z,42.38
2023-05-17T07:31:57.138Z,43.09
2023-05-17T07:32:59.626Z,42.77
2023-05-17T07:34:02.048Z,42.65
2023-05-17T07:35:05.153Z,42.14
2023-05-17T07:36:08.089Z,42.20
2023-05-17T07:37:10.451Z,42.56
2023-05-17T07:38:12.860Z,42.32
2023-05-17T07:39:15.035Z,42.61
2023-05-17T07:40:17.319Z,42.53
2023-05-17T07:41:19.221Z,42.57
2023-05-17T07:42:21.346Z,42.60
2023-05-17T07:43:23.752Z,42.26
2023-05-17T07:44:25.969Z,42.06
2023-05-17T07:45:31.158Z,42.47
2023-05-17T07:46:33.594Z,42.69
2023-05-17T07:47:35.743Z,41.78
2023-05-17T07:48:37.910Z,41.79
2023-05-17T07:49:39.936Z,41.77
2023-05-17T07:50:44.154Z,41.71
2023-05-17T07:51:46.581Z,41.68
2023-05-17T07:52:48.682Z,41.24
2023-05-17T07:53:50.664Z,41.97
2023-05-17T07:54:53.099Z,41.69
2023-05-17T07:55:55.786Z,41.75
2023-05-17T07:56:58.174Z,41.51
2023-05-17T07:58:00.339Z,41.20
2023-05-17T07:59:02.570Z,41.15
2023-05-17T08:00:06.958Z,41.34
2023-05-17T08:01:09.085Z,41.15
2023-05-17T08:02:11.216Z,41.12
2023-05-17T08:03:14.579Z,40.93
2023-05-17T08:04:17.295Z,40.81
2023-05-17T08:05:19.280Z,40.88
2023-05-17T08:06:24.141Z,41.19
2023-05-17T08:07:28.001Z,41.50
2023-05-17T08:08:29.922Z,41.24
2023-05-17T08:09:31.856Z,41.51
2023-05-17T08:10:33.967Z,41.67
2023-05-17T08:11:35.971Z,41.84
2023-05-17T08:12:38.002Z,41.46
2023-05-17T08:13:39.918Z,41.54
2023-05-17T08:14:42.038Z,42.06
2023-05-17T08:15:45.293Z,41.83
2023-05-17T08:16:47.589Z,41.37
2023-05-17T08:17:49.713Z,41.46
2023-05-17T08:18:52.123Z,42.07
2023-05-17T08:19:54.327Z,41.98
2023-05-17T08:20:57.041Z,41.54
2023-05-17T08:22:01.056Z,41.45
2023-05-17T08:23:03.096Z,42.09
2023-05-17T08:24:05.881Z,42.24
2023-05-17T08:25:08.595Z,42.45
2023-05-17T08:26:10.919Z,42.47
2023-05-17T08:27:12.859Z,42.84
2023-05-17T08:28:14.999Z,42.30
2023-05-17T08:29:16.906Z,42.42
2023-05-17T08:30:28.643Z,42.22
2023-05-17T08:31:22.754Z,42.35
2023-05-17T08:32:25.162Z,42.18
2023-05-17T08:33:27.294Z,42.70
2023-05-17T08:34:29.502Z,42.79
2023-05-17T08:35:31.590Z,42.73
2023-05-17T08:36:33.954Z,43.02
2023-05-17T08:37:36.137Z,43.11
2023-05-17T08:38:38.011Z,43.15
2023-05-17T08:39:39.933Z,42.69
2023-05-17T08:40:42.236Z,42.83
2023-05-17T08:41:46.544Z,42.96
2023-05-17T08:42:50.677Z,42.85
2023-05-17T08:43:54.577Z,43.02
2023-05-17T08:44:56.795Z,42.79
2023-05-17T08:45:59.054Z,42.66
2023-05-17T08:47:03.350Z,42.42
2023-05-17T08:48:06.377Z,42.41
2023-05-17T08:49:10.040Z,43.02
2023-05-17T08:50:13.049Z,43.23
2023-05-17T08:51:17.220Z,42.86
2023-05-17T08:52:20.206Z,42.29
2023-05-17T08:53:23.748Z,42.03
2023-05-17T08:54:26.345Z,42.25
2023-05-17T08:55:30.982Z,42.75
2023-05-17T08:56:34.732Z,42.31
2023-05-17T08:57:38.634Z,42.26
2023-05-17T08:58:55.679Z,42.38
2023-05-17T08:59:47.698Z,42.26
2023-05-17T09:00:52.198Z,42.41
2023-05-17T09:01:54.906Z,42.53
2023-05-17T09:02:57.131Z,43.40
2023-05-17T09:04:00.544Z,43.45
2023-05-17T09:05:03.326Z,43.29
2023-05-17T09:06:06.821Z,43.20
2023-05-17T09:07:08.886Z,43.11
2023-05-17T09:08:11.722Z,42.25
2023-05-17T09:09:14.527Z,41.95
2023-05-17T09:10:16.911Z,41.80
2023-05-17T09:12:37.214Z,40.60
2023-05-17T09:13:39.204Z,40.99
2023-05-17T09:14:41.079Z,41.15
2023-05-17T09:15:44.579Z,40.75
2023-05-17T09:16:46.808Z,41.11
2023-05-17T09:17:53.100Z,41.16
2023-05-17T09:18:57.450Z,41.17
2023-05-17T09:19:59.961Z,40.70
2023-05-17T09:21:03.160Z,40.97
2023-05-17T09:22:06.681Z,40.82
2023-05-17T09:23:10.208Z,40.95
2023-05-17T09:24:13.544Z,40.86
2023-05-17T09:25:21.990Z,40.59
2023-05-17T09:26:25.676Z,40.39
2023-05-17T09:27:30.895Z,40.39
2023-05-17T09:28:42.043Z,39.79
2023-05-17T09:29:44.370Z,40.17
2023-05-17T09:30:48.594Z,40.37
2023-05-17T09:31:50.624Z,40.14
2023-05-17T09:32:52.593Z,39.92
2023-05-17T09:33:54.702Z,40.16
2023-05-17T09:34:58.748Z,39.96
2023-05-17T09:36:01.671Z,39.81
2023-05-17T09:37:04.512Z,39.89
2023-05-17T09:38:08.856Z,39.76
2023-05-17T09:39:12.358Z,39.74
2023-05-17T09:40:24.332Z,39.93
2023-05-17T09:41:29.429Z,39.53
2023-05-17T09:42:36.222Z,40.23
2023-05-17T09:43:38.578Z,40.18
2023-05-17T09:44:51.627Z,39.75
2023-05-17T09:45:58.062Z,39.89
2023-05-17T09:47:00.774Z,38.90
2023-05-17T09:48:17.143Z,38.89
2023-05-17T09:49:19.692Z,39.04
2023-05-17T09:50:25.326Z,38.85
2023-05-17T09:51:33.959Z,38.26
2023-05-17T09:52:36.999Z,38.55
2023-05-17T09:53:39.092Z,38.57
2023-05-17T09:54:42.206Z,38.58
2023-05-17T09:55:47.583Z,37.82
2023-05-17T09:56:53.934Z,37.94
2023-05-17T09:58:00.585Z,38.63
2023-05-17T09:59:04.429Z,38.60
2023-05-17T10:00:08.864Z,38.17
2023-05-17T10:01:11.224Z,38.06
2023-05-17T10:02:21.992Z,38.14
2023-05-17T10:03:32.484Z,37.98
2023-05-17T10:04:36.776Z,37.87
2023-05-17T10:05:42.550Z,37.63
2023-05-17T10:06:49.847Z,37.17
2023-05-17T10:07:50.173Z,37.18
2023-05-17T10:08:55.318Z,37.50
2023-05-17T10:09:57.843Z,37.46
2023-05-17T10:11:06.963Z,37.07
2023-05-17T10:12:11.828Z,37.27
2023-05-17T10:13:17.038Z,37.13
2023-05-17T10:14:28.197Z,37.23
2023-05-17T10:15:31.075Z,37.84
2023-05-17T10:16:34.157Z,37.69
2023-05-17T10:17:38.337Z,37.01
2023-05-17T10:18:41.192Z,36.79
2023-05-17T10:19:45.009Z,37.18
2023-05-17T10:20:48.015Z,37.25
2023-05-17T10:21:52.324Z,37.72
2023-05-17T10:22:58.608Z,38.35
2023-05-17T10:24:05.937Z,37.85
2023-05-17T10:25:09.181Z,37.69
2023-05-17T10:26:14.007Z,37.58
2023-05-17T10:27:16.659Z,38.37
2023-05-17T10:28:20.296Z,39.22
2023-05-17T10:29:23.252Z,39.25
2023-05-17T10:30:28.119Z,39.45
2023-05-17T10:31:31.880Z,39.91
2023-05-17T10:32:33.814Z,40.10
2023-05-17T10:33:37.716Z,40.18
2023-05-17T10:34:40.266Z,40.26
2023-05-17T10:35:43.468Z,40.33
2023-05-17T10:36:47.971Z,39.86
2023-05-17T10:37:49.961Z,39.87
2023-05-17T10:38:52.854Z,39.95
2023-05-17T10:39:56.287Z,39.95
2023-05-17T10:41:00.488Z,39.84
2023-05-17T10:42:14.942Z,40.33
2023-05-17T10:43:11.968Z,40.18
2023-05-17T10:44:16.122Z,40.29
2023-05-17T10:45:23.784Z,40.04
2023-05-17T10:46:29.205Z,40.29
2023-05-17T10:47:33.446Z,40.36
2023-05-17T10:48:36.467Z,40.68
2023-05-17T10:49:38.808Z,40.73
2023-05-17T10:50:47.419Z,40.51
2023-05-17T10:51:45.623Z,40.10
2023-05-17T10:52:49.054Z,40.24
2023-05-17T10:54:12.471Z,40.05
2023-05-17T10:55:19.438Z,39.17
2023-05-17T10:56:21.476Z,38.52
2023-05-17T10:57:50.003Z,38.82
2023-05-17T10:58:38.976Z,39.13
2023-05-17T11:00:01.111Z,39.52
2023-05-17T11:01:03.084Z,39.24
2023-05-17T11:02:09.399Z,39.11
2023-05-17T11:03:14.045Z,38.55
2023-05-17T11:04:22.159Z,38.31
2023-05-17T11:05:26.134Z,38.29
2023-05-17T11:06:32.114Z,38.80
2023-05-17T11:07:34.176Z,38.96
2023-05-17T11:08:36.857Z,39.30
2023-05-17T11:09:40.074Z,39.47
2023-05-17T11:11:07.803Z,39.55
2023-05-17T11:12:11.432Z,39.18
2023-05-17T11:13:27.448Z,39.21
2023-05-17T11:14:47.383Z,39.84
2023-05-17T11:16:03.640Z,39.66
2023-05-17T11:18:30.519Z,39.47
2023-05-17T11:19:24.965Z,39.56
2023-05-17T11:20:32.955Z,39.07
2023-05-17T11:21:35.278Z,38.84
2023-05-17T11:23:04.830Z,39.00
2023-05-17T11:24:07.222Z,39.04
2023-05-17T11:25:12.255Z,38.60
2023-05-17T11:26:21.105Z,38.82
2023-05-17T11:27:23.619Z,39.13
2023-05-17T11:28:26.033Z,38.99
2023-05-17T11:29:29.237Z,39.34
2023-05-17T11:30:32.884Z,39.04
2023-05-17T11:31:37.016Z,39.19
2023-05-17T11:32:39.098Z,39.31
2023-05-17T11:33:45.719Z,39.55
2023-05-17T11:34:52.184Z,39.63
2023-05-17T11:35:55.000Z,39.21
2023-05-17T11:36:58.730Z,39.46
2023-05-17T11:38:13.168Z,39.24
2023-05-17T11:39:18.196Z,39.15
2023-05-17T11:40:27.325Z,39.10
2023-05-17T11:41:29.935Z,38.91
2023-05-17T11:42:34.056Z,38.99
2023-05-17T11:43:37.841Z,39.05
2023-05-17T11:44:40.594Z,38.68
2023-05-17T11:45:52.914Z,39.04
2023-05-17T11:47:05.977Z,39.34
2023-05-17T11:48:09.084Z,39.39
2023-05-17T11:49:17.761Z,39.06
2023-05-17T11:50:17.487Z,38.65
2023-05-17T11:51:21.367Z,38.59
2023-05-17T11:52:27.345Z,38.36
2023-05-17T11:53:30.989Z,37.30
2023-05-17T11:54:33.746Z,36.90
2023-05-17T11:55:42.146Z,36.95
2023-05-17T11:56:44.554Z,36.75
2023-05-17T11:57:47.332Z,36.47
2023-05-17T11:58:53.885Z,36.75
2023-05-17T12:00:01.004Z,36.42
2023-05-17T12:01:03.094Z,36.29
2023-05-17T12:02:05.578Z,36.38
2023-05-17T12:03:21.607Z,36.52
2023-05-17T12:04:25.665Z,36.57
2023-05-17T12:05:28.756Z,36.89
2023-05-17T12:06:31.111Z,36.99
2023-05-17T12:07:33.720Z,37.17
2023-05-17T12:08:37.896Z,36.83
2023-05-17T12:09:40.797Z,36.21
2023-05-17T12:10:51.868Z,36.00
2023-05-17T12:11:54.027Z,36.47
2023-05-17T12:12:55.938Z,36.67
2023-05-17T12:13:57.806Z,36.76
2023-05-17T12:15:01.207Z,36.93
2023-05-17T12:16:13.234Z,35.86
2023-05-17T12:18:43.043Z,35.92
2023-05-17T12:19:45.195Z,35.95
2023-05-17T12:20:57.328Z,36.51
2023-05-17T12:22:10.698Z,36.70
2023-05-17T12:23:12.648Z,36.92
2023-05-17T12:24:15.279Z,36.82
2023-05-17T12:25:21.632Z,36.24
2023-05-17T12:26:24.018Z,35.27
2023-05-17T12:27:26.460Z,35.06
2023-05-17T12:28:28.435Z,35.05
2023-05-17T12:29:30.443Z,35.52
2023-05-17T12:30:34.763Z,35.41
2023-05-17T12:31:43.221Z,35.29
2023-05-17T12:32:46.496Z,35.23
2023-05-17T12:33:48.892Z,35.71
2023-05-17T12:34:51.432Z,35.98
2023-05-17T12:35:54.089Z,35.72
2023-05-17T12:36:58.320Z,35.56
2023-05-17T12:38:01.447Z,35.31
2023-05-17T12:39:04.717Z,34.63
2023-05-17T12:40:08.520Z,34.25
2023-05-17T12:41:14.276Z,34.53
2023-05-17T12:42:16.227Z,34.64
2023-05-17T12:43:18.346Z,34.92
2023-05-17T12:44:20.784Z,34.66
2023-05-17T12:45:22.805Z,34.88
2023-05-17T12:46:24.900Z,34.83
2023-05-17T12:47:33.126Z,34.73
2023-05-17T12:48:36.546Z,34.82
2023-05-17T12:49:38.750Z,34.79
2023-05-17T12:50:43.799Z,34.35
2023-05-17T12:51:47.638Z,34.25
2023-05-17T12:52:49.562Z,34.48
2023-05-17T12:53:56.362Z,34.06
2023-05-17T12:54:58.944Z,33.77
2023-05-17T12:56:01.408Z,33.58
2023-05-17T12:57:12.993Z,33.55
2023-05-17T12:58:15.282Z,33.48
2023-05-17T12:59:18.395Z,33.89
2023-05-17T13:00:22.208Z,33.83
2023-05-17T13:01:24.127Z,33.99
2023-05-17T13:02:27.420Z,34.36
2023-05-17T13:03:29.589Z,34.26
2023-05-17T13:04:34.309Z,33.84
2023-05-17T13:05:36.614Z,33.47
2023-05-17T13:06:57.152Z,33.32
2023-05-17T13:08:19.989Z,33.51
2023-05-17T13:09:23.844Z,33.57
2023-05-17T13:10:27.258Z,34.11
2023-05-17T13:11:29.460Z,34.38
2023-05-17T13:12:31.578Z,34.40
2023-05-17T13:13:34.052Z,34.30
2023-05-17T13:14:45.664Z,34.44
2023-05-17T13:15:46.610Z,34.65
2023-05-17T13:16:50.860Z,34.71
2023-05-17T13:17:52.947Z,34.59
2023-05-17T13:19:52.270Z,34.28
2023-05-17T13:20:54.637Z,34.89
2023-05-17T13:21:56.944Z,35.40
2023-05-17T13:22:58.984Z,35.18
2023-05-17T13:24:00.960Z,35.35
2023-05-17T13:25:03.173Z,35.46
2023-05-17T13:26:05.381Z,35.72
2023-05-17T13:27:08.371Z,36.12
2023-05-17T13:28:10.407Z,36.05
2023-05-17T13:29:12.291Z,36.15
2023-05-17T13:30:17.039Z,35.93
2023-05-17T13:31:19.053Z,35.55
2023-05-17T13:32:21.201Z,35.45
2023-05-17T13:33:23.740Z,35.84
2023-05-17T13:34:25.875Z,35.87
2023-05-17T13:35:27.882Z,36.05
2023-05-17T13:36:29.973Z,36.23
2023-05-17T13:37:32.089Z,35.89
2023-05-17T13:38:33.994Z,36.22
2023-05-17T13:39:35.894Z,36.67
2023-05-17T13:41:31.441Z,36.90
2023-05-17T13:42:33.393Z,37.16
2023-05-17T13:43:36.857Z,37.35
2023-05-17T13:44:39.859Z,36.09
2023-05-17T13:45:41.973Z,36.17
2023-05-17T13:46:44.048Z,35.77
2023-05-17T13:47:46.180Z,36.02
2023-05-17T13:48:48.778Z,35.66